MMCB

General Mariano Matamoros Airport

Mexico
TAF MMCB 220410Z 2206/2306 00000KT P6SM SKC FM221800 23010KT P6SM SKC BECMG 2302/2304 02004KT
Issued Valid From Valid To
Jan-22 @ 04:10 UTC
(13 hours ago)
Jan-22 @ 06:00 UTC
(11 hours ago)
Jan-23 @ 06:00 UTC
(in 13 hours)
Jan-22 @ 06:00 to Jan-22 @ 18:00
TAF MMCB 220410Z 2206/2306 00000KT P6SM SKC
Visibility Clouds
Greater than 6 miles
  • Clear skies
From Jan-22 @ 18:00 to Jan-23 @ 02:00
FM221800 23010KT P6SM SKC
Wind Visibility Clouds
230° at 10 knots Greater than 6 miles
  • Clear skies
Becoming Jan-23 @ 02:00 to Jan-23 @ 06:00
BECMG 2302/2304 02004KT
Wind Visibility Clouds
20° at 4 knots Greater than 6 miles
  • Clear skies
TAF MMCB 220410Z 2206/2306 00000KT P6SM SKC FM221800 23010KT P6SM SKC BECMG 2302/2304 02004KT
Issued Jan-22 @ 04:10 UTC
(13 hours ago)
Valid From Jan-22 @ 06:00 UTC
(11 hours ago)
Valid To Jan-23 @ 06:00 UTC
(in 13 hours)
Jan-22 @ 06:00 - Jan-22 @ 18:00
Clouds
  • Clear skies
From Jan-22 @ 18:00 - Jan-23 @ 02:00
Wind Visibility
230° at 10 knots Greater than 6 miles
Clouds
  • Clear skies
Becoming Jan-23 @ 02:00 - Jan-23 @ 06:00
Wind Visibility
20° at 4 knots Greater than 6 miles
Clouds
  • Clear skies